Time;durP1;ratioP1;P1;durP2;ratioP2;P2;SDS_P1;SDS_P2;PMS_P1;PMS_P2;Temp;Humidity;BMP_temperature;BMP_pressure;BME280_temperature;BME280_humidity;BME280_pressure;Samples;Min_cycle;Max_cycle;Signal;HPM_P1;HPM_P2
2021/07/07 00:01:16;;;;;;;;;4.00;4.00;;;;;17.46;62.53;100934.41;5089854;27;45542;-72
2021/07/07 00:03:42;;;;;;;;;4.00;3.00;;;;;17.41;61.11;100934.97;5097648;27;45619;-71
2021/07/07 00:06:07;;;;;;;;;4.25;3.50;;;;;17.38;61.88;100929.16;5091471;27;45841;-70
2021/07/07 00:08:33;;;;;;;;;5.00;5.00;;;;;17.37;62.49;100944.34;5091035;27;45535;-67
2021/07/07 00:10:59;;;;;;;;;7.25;2.75;;;;;17.36;62.88;100945.38;5091460;27;45535;-67
2021/07/07 00:13:26;;;;;;;;;5.25;4.25;;;;;17.35;63.14;100949.06;5099545;27;45497;-68
2021/07/07 00:15:51;;;;;;;;;2.50;2.50;;;;;17.34;62.75;100950.09;5102256;27;45617;-70
2021/07/07 00:18:16;;;;;;;;;5.00;3.00;;;;;17.32;61.98;100949.44;5090777;27;45390;-70
2021/07/07 00:20:46;;;;;;;;;7.50;4.00;;;;;17.32;63.47;100951.28;5092338;27;45579;-71
2021/07/07 00:23:13;;;;;;;;;6.25;5.00;;;;;17.32;62.82;100951.28;5091310;27;45394;-67
2021/07/07 00:25:38;;;;;;;;;3.50;3.00;;;;;17.30;62.15;100948.78;5091433;27;45728;-66
2021/07/07 00:28:04;;;;;;;;;3.25;3.25;;;;;17.29;63.32;100952.50;5098117;27;45731;-68
2021/07/07 00:30:30;;;;;;;;;6.00;4.00;;;;;17.30;64.03;100958.66;5090895;27;45409;-68
2021/07/07 00:32:56;;;;;;;;;5.50;4.00;;;;;17.28;62.94;100956.16;5091399;27;45535;-70
2021/07/07 00:35:23;;;;;;;;;4.50;4.00;;;;;17.28;63.37;100955.34;5090015;27;45578;-69
2021/07/07 00:37:48;;;;;;;;;6.00;3.00;;;;;17.26;63.20;100952.03;5094798;27;45605;-70
2021/07/07 00:40:14;;;;;;;;;4.00;4.00;;;;;17.27;63.72;100957.19;5101050;27;45670;-71
2021/07/07 00:42:39;;;;;;;;;3.25;3.00;;;;;17.25;63.14;100953.88;5092654;27;45511;-68
2021/07/07 00:45:06;;;;;;;;;5.00;3.00;;;;;17.27;63.66;100962.53;5083265;27;47239;-72
2021/07/07 00:47:31;;;;;;;;;4.50;3.50;;;;;17.27;62.65;100957.19;5090005;27;45589;-70
2021/07/07 00:49:57;;;;;;;;;3.00;3.00;;;;;17.23;61.86;100953.22;5089852;27;45553;-71
2021/07/07 00:52:23;;;;;;;;;4.25;3.75;;;;;17.20;62.71;100962.44;5090750;27;45416;-72
2021/07/07 00:54:49;;;;;;;;;6.75;3.50;;;;;17.19;63.10;100962.66;5089329;27;45563;-70
2021/07/07 00:57:16;;;;;;;;;4.25;3.50;;;;;17.17;63.65;100959.34;5090248;27;45478;-66
2021/07/07 00:59:43;;;;;;;;;4.00;4.00;;;;;17.14;62.89;100959.72;5101513;27;45538;-70
2021/07/07 01:02:10;;;;;;;;;5.00;3.00;;;;;17.10;63.95;100947.75;5101369;27;45577;-69
2021/07/07 01:04:35;;;;;;;;;5.25;2.75;;;;;17.10;64.23;100947.75;5095135;27;45527;-69
2021/07/07 01:07:01;;;;;;;;;6.00;4.50;;;;;17.08;63.52;100950.59;5095239;27;45948;-70
2021/07/07 01:09:26;;;;;;;;;7.75;3.00;;;;;17.09;63.13;100960.28;5089449;27;45498;-67
2021/07/07 01:11:52;;;;;;;;;4.00;3.00;;;;;17.10;64.69;100953.09;5082222;27;50711;-72
2021/07/07 01:14:17;;;;;;;;;5.25;3.00;;;;;17.11;63.08;100950.25;5096721;27;45489;-69
2021/07/07 01:16:44;;;;;;;;;2.75;2.75;;;;;17.13;62.56;100963.38;5099911;27;45436;-69
2021/07/07 01:19:11;;;;;;;;;3.50;3.50;;;;;17.13;62.95;100958.03;5097830;27;45404;-70
2021/07/07 01:21:51;;;;;;;;;3.00;3.00;;;;;17.16;64.75;100958.53;5089224;27;45474;-67
2021/07/07 01:24:18;;;;;;;;;2.25;2.25;;;;;17.18;62.68;100963.66;5094834;27;45992;-67
2021/07/07 01:26:44;;;;;;;;;4.50;3.00;;;;;17.13;62.84;100964.22;5094210;27;45501;-70
2021/07/07 01:29:11;;;;;;;;;3.75;3.75;;;;;17.11;63.18;100963.59;5102807;27;45424;-68
2021/07/07 01:31:39;;;;;;;;;3.00;2.00;;;;;17.09;63.02;100959.47;5089978;27;45856;-67
2021/07/07 01:34:06;;;;;;;;;5.00;3.00;;;;;17.05;63.81;100955.50;5093500;27;46804;-68
2021/07/07 01:36:33;;;;;;;;;4.00;2.75;;;;;17.01;64.00;100956.88;5093497;27;45573;-70
2021/07/07 01:38:58;;;;;;;;;5.50;3.50;;;;;16.97;64.07;100959.91;5098860;27;45542;-72
2021/07/07 01:41:24;;;;;;;;;6.75;4.00;;;;;16.93;64.23;100958.63;5098595;27;45411;-67
2021/07/07 01:43:49;;;;;;;;;4.50;3.50;;;;;16.89;63.30;100951.16;5090501;27;46767;-67
2021/07/07 01:46:15;;;;;;;;;3.00;2.50;;;;;16.82;63.69;100964.44;5104912;27;45459;-68
2021/07/07 01:48:40;;;;;;;;;3.00;3.00;;;;;16.78;64.03;100960.47;5101861;27;45443;-69
2021/07/07 01:51:05;;;;;;;;;3.00;3.00;;;;;16.77;64.45;100950.78;5094323;27;45296;-68
2021/07/07 01:53:31;;;;;;;;;2.00;2.00;;;;;16.75;65.27;100955.47;5093957;27;45526;-70
2021/07/07 01:55:56;;;;;;;;;5.25;3.00;;;;;16.74;64.14;100954.66;5100048;27;45482;-69
2021/07/07 01:58:22;;;;;;;;;3.00;2.50;;;;;16.73;64.87;100962.84;5095414;27;45875;-70
2021/07/07 02:00:47;;;;;;;;;4.00;4.00;;;;;16.71;64.76;100955.00;5095327;27;45483;-68
2021/07/07 02:03:13;;;;;;;;;4.50;3.75;;;;;16.71;65.50;100956.84;5093845;27;46661;-67
2021/07/07 02:05:38;;;;;;;;;3.00;3.00;;;;;16.69;65.16;100964.22;5096424;27;45526;-72
2021/07/07 02:08:07;;;;;;;;;4.75;2.75;;;;;16.67;64.59;100960.91;5090914;27;45579;-67
2021/07/07 02:10:33;;;;;;;;;3.00;2.25;;;;;16.65;64.91;100960.28;5095650;27;45393;-67
2021/07/07 02:12:59;;;;;;;;;5.25;3.00;;;;;16.64;65.23;100958.59;5092870;27;45727;-70
2021/07/07 02:15:31;;;;;;;;;3.00;2.00;;;;;16.62;65.17;100955.31;5094462;27;45631;-72
2021/07/07 02:17:58;;;;;;;;;5.00;3.00;;;;;16.63;65.09;100956.94;5089880;27;45574;-70
2021/07/07 02:20:25;;;;;;;;;3.75;3.50;;;;;16.64;65.29;100963.94;5091502;27;45442;-69
2021/07/07 02:22:51;;;;;;;;;3.50;3.00;;;;;16.62;64.32;100960.66;5091323;27;46296;-72
2021/07/07 02:25:22;;;;;;;;;4.75;3.00;;;;;16.63;65.23;100960.44;5091231;27;45577;-68
2021/07/07 02:27:49;;;;;;;;;4.75;3.00;;;;;16.67;65.82;100958.25;5090629;27;45658;-67
2021/07/07 02:30:18;;;;;;;;;5.25;3.75;;;;;16.71;64.93;100956.84;5094527;27;45586;-68
2021/07/07 02:32:44;;;;;;;;;4.00;3.75;;;;;16.74;64.87;100961.81;5088040;27;46644;-69
2021/07/07 02:35:13;;;;;;;;;6.00;3.50;;;;;16.74;64.28;100964.47;5098682;27;45577;-67
2021/07/07 02:37:39;;;;;;;;;3.50;3.50;;;;;16.72;64.41;100966.53;5088208;27;45609;-67
2021/07/07 02:40:07;;;;;;;;;5.50;3.25;;;;;16.71;64.86;100962.19;5096182;27;45587;-66
2021/07/07 02:42:33;;;;;;;;;4.25;3.00;;;;;16.72;65.81;100956.69;5092573;27;46704;-67
2021/07/07 02:44:58;;;;;;;;;4.00;2.50;;;;;16.76;65.66;100957.97;5088410;27;45590;-68
2021/07/07 02:47:24;;;;;;;;;5.25;3.00;;;;;16.77;65.24;100959.63;5086680;27;45515;-72
2021/07/07 02:49:49;;;;;;;;;4.00;3.00;;;;;16.76;65.18;100960.66;5090116;27;45405;-67
2021/07/07 02:52:15;;;;;;;;;4.25;4.00;;;;;16.74;64.47;100960.00;5088795;27;46245;-70
2021/07/07 02:54:40;;;;;;;;;3.00;3.00;;;;;16.68;64.90;100954.56;5089444;27;45380;-69
2021/07/07 02:57:06;;;;;;;;;2.25;2.25;;;;;16.61;64.92;100969.66;5087415;27;45504;-68
2021/07/07 02:59:32;;;;;;;;;5.00;3.00;;;;;16.54;65.49;100965.06;5087944;27;45686;-70
2021/07/07 03:01:57;;;;;;;;;3.00;3.00;;;;;16.54;65.36;100969.53;5084845;27;46035;-69
2021/07/07 03:04:22;;;;;;;;;4.50;4.00;;;;;16.50;65.97;100974.41;5087045;27;45491;-67
2021/07/07 03:06:48;;;;;;;;;4.00;2.25;;;;;16.48;65.51;100968.44;5097739;27;46015;-69
2021/07/07 03:09:13;;;;;;;;;6.00;3.00;;;;;16.43;65.67;100972.66;5086220;27;45467;-72
2021/07/07 03:11:38;;;;;;;;;3.25;3.00;;;;;16.40;66.38;100981.03;5091872;27;46229;-68
2021/07/07 03:14:05;;;;;;;;;3.50;3.00;;;;;16.38;66.22;100986.53;5091060;27;45397;-69
2021/07/07 03:16:31;;;;;;;;;5.25;3.50;;;;;16.35;66.84;100981.59;5084728;27;45430;-66
2021/07/07 03:18:56;;;;;;;;;4.00;3.00;;;;;16.31;67.03;100981.09;5089037;27;45718;-69
2021/07/07 03:21:21;;;;;;;;;5.00;5.00;;;;;16.30;67.81;100981.31;5082830;27;47162;-65
2021/07/07 03:23:48;;;;;;;;;5.00;5.00;;;;;16.29;67.64;100985.78;5088849;27;45465;-71
2021/07/07 03:26:13;;;;;;;;;5.00;2.75;;;;;16.29;68.13;100977.78;5092132;27;45526;-69
2021/07/07 03:28:38;;;;;;;;;4.00;3.25;;;;;16.31;67.86;100980.28;5089698;27;45590;-70
2021/07/07 03:31:04;;;;;;;;;6.00;3.00;;;;;16.30;67.19;100975.97;5087999;27;45434;-68
2021/07/07 03:33:30;;;;;;;;;4.00;4.00;;;;;16.31;67.59;100989.09;5089505;27;45488;-68
2021/07/07 03:35:55;;;;;;;;;3.50;3.50;;;;;16.31;68.08;100986.44;5098417;27;45850;-66
2021/07/07 03:38:20;;;;;;;;;5.00;5.00;;;;;16.30;67.95;100992.78;5095159;27;45492;-68
2021/07/07 03:40:46;;;;;;;;;3.75;3.50;;;;;16.29;69.04;100991.13;5095380;27;45476;-70
2021/07/07 03:43:12;;;;;;;;;5.00;3.25;;;;;16.27;68.60;100989.63;5098700;27;45628;-67
2021/07/07 03:45:37;;;;;;;;;4.75;4.00;;;;;16.23;68.55;100994.50;5092447;27;45494;-67
2021/07/07 03:48:07;;;;;;;;;4.75;3.50;;;;;16.23;69.23;100999.03;5090793;27;45532;-68
2021/07/07 03:50:33;;;;;;;;;4.00;3.00;;;;;16.20;68.82;100999.41;5091275;27;45497;-67
2021/07/07 03:52:58;;;;;;;;;3.75;3.00;;;;;16.18;68.85;101001.41;5093360;27;45844;-69
2021/07/07 03:55:24;;;;;;;;;5.00;4.25;;;;;16.13;68.94;101002.75;5086075;27;45571;-71
2021/07/07 03:57:49;;;;;;;;;9.00;5.00;;;;;16.11;68.73;101007.44;5095514;27;45428;-66
2021/07/07 04:00:19;;;;;;;;;6.25;4.00;;;;;16.07;69.14;100999.97;5092213;27;47424;-71
2021/07/07 04:02:44;;;;;;;;;4.00;4.00;;;;;16.05;69.44;101002.84;5087707;27;45532;-66
2021/07/07 04:05:11;;;;;;;;;6.50;3.00;;;;;16.02;68.90;101002.34;5090362;27;45458;-70
2021/07/07 04:07:37;;;;;;;;;3.25;3.25;;;;;16.02;69.97;101007.69;5083907;27;48003;-70
2021/07/07 04:10:07;;;;;;;;;11.00;5.50;;;;;16.00;70.32;101007.88;5092363;27;46858;-68
2021/07/07 04:12:32;;;;;;;;;4.50;3.50;;;;;16.02;70.51;101011.19;5083435;27;46398;-71
2021/07/07 04:14:58;;;;;;;;;6.00;3.50;;;;;16.02;70.11;101018.34;5091741;27;45877;-72
2021/07/07 04:17:23;;;;;;;;;3.50;3.00;;;;;16.02;70.53;101008.53;5097195;27;45509;-70
2021/07/07 04:19:48;;;;;;;;;6.00;3.75;;;;;16.04;70.63;101019.81;5079271;27;46179;-72
2021/07/07 04:22:14;;;;;;;;;4.50;4.00;;;;;16.06;70.64;101017.81;5077155;27;45482;-72
2021/07/07 04:24:39;;;;;;;;;6.25;5.00;;;;;16.09;70.78;101027.28;5081673;27;45916;-69
2021/07/07 04:27:05;;;;;;;;;7.00;5.50;;;;;16.10;71.27;101027.13;5079619;27;45470;-70
2021/07/07 04:29:31;;;;;;;;;7.00;6.00;;;;;16.16;69.50;101035.41;5085364;27;46573;-67
2021/07/07 04:31:57;;;;;;;;;7.25;4.00;;;;;16.19;69.12;101035.03;5083688;27;45934;-72
2021/07/07 04:34:23;;;;;;;;;3.00;3.00;;;;;16.23;69.35;101047.03;5080595;27;45513;-67
2021/07/07 04:36:49;;;;;;;;;4.25;4.25;;;;;16.26;69.72;101050.16;5087698;27;45519;-70
2021/07/07 04:39:15;;;;;;;;;6.00;5.00;;;;;16.28;69.01;101050.81;5088780;27;45544;-72
2021/07/07 04:41:41;;;;;;;;;4.50;4.50;;;;;16.32;69.21;101048.63;5084960;27;45558;-67
2021/07/07 04:44:06;;;;;;;;;5.00;4.00;;;;;16.35;69.33;101045.59;5090964;27;45426;-71
2021/07/07 04:46:32;;;;;;;;;4.25;4.25;;;;;16.37;68.90;101048.91;5085569;27;45588;-73
2021/07/07 04:48:57;;;;;;;;;7.25;5.00;;;;;16.41;68.83;101050.19;5094221;27;45473;-70
2021/07/07 04:51:22;;;;;;;;;9.50;9.50;;;;;16.45;68.20;101048.84;5083376;27;45563;-71
2021/07/07 04:53:48;;;;;;;;;5.25;3.25;;;;;16.52;68.84;101051.63;5079054;27;45491;-72
2021/07/07 04:56:13;;;;;;;;;6.00;5.00;;;;;16.59;69.01;101054.38;5088059;27;45522;-67
2021/07/07 04:58:42;;;;;;;;;4.50;4.00;;;;;16.59;68.57;101059.72;5084231;27;46089;-72
2021/07/07 05:01:08;;;;;;;;;4.00;4.00;;;;;16.54;69.44;101055.78;5082828;27;45473;-71
2021/07/07 05:03:33;;;;;;;;;7.25;5.00;;;;;16.54;68.43;101054.91;5086458;27;45394;-68
2021/07/07 05:05:59;;;;;;;;;3.00;3.00;;;;;16.58;67.99;101055.41;5085204;27;45835;-71
2021/07/07 05:08:24;;;;;;;;;6.50;5.00;;;;;16.65;68.40;101064.34;5082834;27;45900;-71
2021/07/07 05:10:50;;;;;;;;;5.00;4.25;;;;;16.68;68.40;101059.47;5090015;27;45622;-71
2021/07/07 05:13:17;;;;;;;;;5.50;4.75;;;;;16.82;68.78;101068.53;5088214;27;45582;-73
2021/07/07 05:15:44;;;;;;;;;5.25;3.75;;;;;16.94;67.88;101072.44;5084957;27;45457;-66
2021/07/07 05:18:10;;;;;;;;;3.75;3.75;;;;;17.06;67.41;101078.16;5090178;27;46312;-70
2021/07/07 05:20:36;;;;;;;;;3.75;3.25;;;;;17.12;67.50;101065.91;5093953;27;45605;-66
2021/07/07 05:23:06;;;;;;;;;4.00;4.00;;;;;17.16;67.41;101073.34;5087109;27;45446;-67
2021/07/07 05:25:35;;;;;;;;;6.00;4.50;;;;;17.15;67.25;101079.69;5084630;27;45582;-68
2021/07/07 05:28:02;;;;;;;;;3.00;2.50;;;;;17.16;67.02;101080.50;5085601;27;45678;-67
2021/07/07 05:30:28;;;;;;;;;4.25;4.25;;;;;17.16;67.11;101088.53;5080055;27;46142;-70
2021/07/07 05:32:54;;;;;;;;;6.00;5.00;;;;;17.16;66.98;101086.72;5088509;27;45493;-74
2021/07/07 05:35:19;;;;;;;;;8.00;5.00;;;;;17.16;66.84;101091.19;5083837;27;45640;-67
2021/07/07 05:37:46;;;;;;;;;4.75;4.00;;;;;17.13;67.14;101081.72;5086134;27;45648;-71
2021/07/07 05:40:13;;;;;;;;;8.25;6.75;;;;;17.15;67.34;101084.22;5087537;27;45581;-70
2021/07/07 05:42:39;;;;;;;;;7.25;6.75;;;;;17.17;67.14;101085.69;5087762;27;45577;-73
2021/07/07 05:45:05;;;;;;;;;5.00;4.25;;;;;17.19;67.66;101085.50;5081113;27;45806;-67
2021/07/07 05:47:30;;;;;;;;;7.00;5.25;;;;;17.18;67.06;101084.69;5089615;27;48194;-66
2021/07/07 05:49:56;;;;;;;;;7.25;7.00;;;;;17.18;67.30;101083.84;5085578;27;45637;-67
2021/07/07 05:52:24;;;;;;;;;8.75;6.00;;;;;17.22;67.71;101086.97;5085860;27;45525;-73
2021/07/07 05:54:50;;;;;;;;;5.25;5.00;;;;;17.26;67.62;101094.44;5087088;27;45585;-65
2021/07/07 05:57:16;;;;;;;;;6.75;5.25;;;;;17.31;67.78;101093.88;5076881;27;48407;-71
2021/07/07 05:59:41;;;;;;;;;6.00;4.50;;;;;17.36;67.27;101096.84;5089138;27;45472;-67
2021/07/07 06:02:07;;;;;;;;;5.00;5.00;;;;;17.41;68.04;101094.44;5088957;27;45468;-74
2021/07/07 06:04:32;;;;;;;;;6.00;5.00;;;;;17.57;67.16;101101.41;5086617;27;45823;-71
2021/07/07 06:06:57;;;;;;;;;7.75;4.50;;;;;17.71;66.89;101095.22;5089322;27;45518;-69
2021/07/07 06:09:23;;;;;;;;;5.00;5.00;;;;;17.86;66.67;101102.41;5087941;27;45955;-69
2021/07/07 06:11:49;;;;;;;;;6.75;6.50;;;;;17.95;66.56;101091.44;5090213;27;45472;-66
2021/07/07 06:14:15;;;;;;;;;5.25;5.00;;;;;18.17;65.85;101096.78;5097631;27;45431;-70
2021/07/07 06:16:40;;;;;;;;;6.00;3.75;;;;;18.40;65.93;101100.09;5083606;27;45429;-66
2021/07/07 06:19:05;;;;;;;;;7.00;3.75;;;;;18.59;64.83;101098.59;5090957;27;45547;-71
2021/07/07 06:21:31;;;;;;;;;6.00;4.75;;;;;18.75;64.53;101096.69;5088468;27;45535;-72
2021/07/07 06:23:57;;;;;;;;;5.00;5.00;;;;;18.98;64.09;101097.28;5091564;27;45610;-65
2021/07/07 06:26:22;;;;;;;;;7.00;5.25;;;;;19.13;63.80;101095.31;5088677;27;45485;-68
2021/07/07 06:28:48;;;;;;;;;5.00;5.00;;;;;19.26;63.13;101091.06;5091756;27;45566;-69
2021/07/07 06:31:13;;;;;;;;;7.25;5.00;;;;;19.51;63.62;101102.09;5093515;27;45465;-71
2021/07/07 06:33:38;;;;;;;;;5.25;4.50;;;;;19.73;63.10;101100.16;5096554;27;45494;-73
2021/07/07 06:36:04;;;;;;;;;5.00;3.50;;;;;20.03;62.74;101102.53;5089735;27;45498;-66
2021/07/07 06:38:29;;;;;;;;;5.75;5.50;;;;;20.26;61.92;101108.38;5107418;27;45553;-73
2021/07/07 06:40:55;;;;;;;;;8.00;4.50;;;;;20.49;61.66;101107.97;5103504;27;45488;-69
2021/07/07 06:43:20;;;;;;;;;7.00;5.25;;;;;20.68;61.19;101103.66;5091317;27;45514;-68
2021/07/07 06:45:46;;;;;;;;;6.50;5.50;;;;;20.83;61.35;101100.78;5090406;27;45949;-69
2021/07/07 06:48:11;;;;;;;;;6.50;5.25;;;;;20.91;60.35;101108.59;5087119;27;45535;-72
2021/07/07 06:50:38;;;;;;;;;11.00;5.00;;;;;21.01;59.87;101108.19;5087922;27;45770;-71
2021/07/07 06:53:04;;;;;;;;;6.00;5.00;;;;;21.15;60.13;101117.88;5088567;27;45643;-69
2021/07/07 06:55:30;;;;;;;;;6.00;5.00;;;;;21.27;58.03;101126.13;5088736;27;47111;-69
2021/07/07 06:57:55;;;;;;;;;6.25;5.00;;;;;21.23;58.17;101130.25;5088005;27;45493;-73
2021/07/07 07:00:22;;;;;;;;;4.50;4.50;;;;;20.97;56.87;101129.28;5093615;27;45395;-72
2021/07/07 07:02:48;;;;;;;;;8.25;5.00;;;;;20.80;58.55;101130.75;5089222;27;45721;-73
2021/07/07 07:05:15;;;;;;;;;7.25;5.75;;;;;20.77;58.71;101129.28;5086970;27;46331;-71
2021/07/07 07:07:42;;;;;;;;;3.75;3.00;;;;;20.87;57.37;101136.09;5089840;27;45596;-73
2021/07/07 07:10:09;;;;;;;;;5.00;5.00;;;;;20.92;59.15;101130.91;5092188;27;46045;-69
2021/07/07 07:12:35;;;;;;;;;10.00;6.00;;;;;20.99;57.88;101131.75;5088992;27;45616;-69
2021/07/07 07:15:03;;;;;;;;;6.25;5.00;;;;;20.91;58.66;101134.66;5090344;27;46267;-69
2021/07/07 07:17:29;;;;;;;;;6.00;5.25;;;;;21.04;58.81;101129.25;5086810;27;45444;-69
2021/07/07 07:19:54;;;;;;;;;5.00;4.75;;;;;21.25;58.43;101142.47;5090977;27;45405;-72
2021/07/07 07:22:20;;;;;;;;;5.75;5.00;;;;;21.46;57.03;101148.63;5108931;27;45380;-65
2021/07/07 07:24:46;;;;;;;;;6.25;5.50;;;;;21.65;57.95;101145.06;5098139;27;46115;-73
2021/07/07 07:27:12;;;;;;;;;6.00;4.25;;;;;21.89;56.94;101145.38;5088917;27;45632;-69
2021/07/07 07:29:40;;;;;;;;;4.75;4.75;;;;;21.90;56.03;101149.72;5086636;27;45574;-69
2021/07/07 07:32:06;;;;;;;;;8.50;7.00;;;;;21.97;56.01;101145.13;5084930;27;45539;-71
2021/07/07 07:34:32;;;;;;;;;6.00;5.25;;;;;22.10;56.97;101147.75;5089156;27;46573;-67
2021/07/07 07:37:01;;;;;;;;;10.00;7.00;;;;;22.26;55.59;101156.41;5089469;27;45565;-70
2021/07/07 07:39:28;;;;;;;;;7.00;5.50;;;;;22.29;50.79;101153.28;5086641;27;45601;-71
2021/07/07 07:41:53;;;;;;;;;7.00;5.00;;;;;22.01;53.90;101156.31;5087267;27;45659;-67
2021/07/07 07:44:19;;;;;;;;;4.50;4.50;;;;;21.92;55.76;101153.03;5096333;27;45569;-66
2021/07/07 07:46:44;;;;;;;;;6.50;5.00;;;;;22.24;56.49;101147.72;5099238;27;45757;-74
2021/07/07 07:49:13;;;;;;;;;4.75;4.75;;;;;22.68;54.31;101157.56;5089706;27;45437;-73
2021/07/07 07:51:39;;;;;;;;;6.00;4.00;;;;;22.78;53.15;101161.63;5092652;27;45553;-68
2021/07/07 07:54:04;;;;;;;;;6.00;5.25;;;;;22.59;53.84;101161.56;5079862;27;45644;-72
2021/07/07 07:56:30;;;;;;;;;5.00;5.00;;;;;22.57;54.17;101165.50;5112448;27;45804;-66
2021/07/07 07:58:55;;;;;;;;;5.50;5.00;;;;;22.98;54.97;101170.41;5087701;27;46742;-72
2021/07/07 08:01:21;;;;;;;;;8.00;6.50;;;;;23.45;54.24;101164.53;5085006;27;46120;-72
2021/07/07 08:03:47;;;;;;;;;7.00;5.25;;;;;24.94;52.85;101164.78;5083828;27;46334;-72
2021/07/07 08:06:12;;;;;;;;;5.00;5.00;;;;;26.00;48.97;101170.09;5083178;27;45579;-72
2021/07/07 08:08:38;;;;;;;;;5.50;4.00;;;;;27.87;48.03;101172.50;5083434;27;45907;-73
2021/07/07 08:11:04;;;;;;;;;5.00;3.00;;;;;29.93;40.48;101172.13;5083012;27;45489;-73
2021/07/07 08:13:29;;;;;;;;;2.50;2.50;;;;;29.97;38.82;101173.19;5089333;27;45594;-66
2021/07/07 08:15:55;;;;;;;;;5.25;5.00;;;;;28.69;42.18;101183.38;5084286;27;45454;-67
2021/07/07 08:18:20;;;;;;;;;4.00;4.00;;;;;28.34;44.08;101187.38;5081529;27;45737;-73
2021/07/07 08:20:45;;;;;;;;;5.75;4.75;;;;;28.05;40.85;101195.78;5084566;27;45654;-71
2021/07/07 08:23:11;;;;;;;;;5.00;4.25;;;;;27.63;43.32;101188.19;5080837;27;48277;-73
2021/07/07 08:25:37;;;;;;;;;8.00;5.25;;;;;27.91;44.30;101185.56;5080779;27;45536;-66
2021/07/07 08:28:03;;;;;;;;;5.00;5.00;;;;;28.83;42.81;101187.31;5083801;27;45918;-72
2021/07/07 08:30:30;;;;;;;;;5.75;4.50;;;;;28.89;43.79;101197.13;5079992;27;45539;-73
2021/07/07 08:32:55;;;;;;;;;4.75;4.00;;;;;29.25;40.23;101188.41;5081772;27;47404;-66
2021/07/07 08:35:21;;;;;;;;;4.50;4.50;;;;;28.40;39.51;101194.50;5087048;27;45906;-73
2021/07/07 08:37:46;;;;;;;;;6.00;5.00;;;;;28.46;42.05;101196.22;5085718;27;45464;-66
2021/07/07 08:40:14;;;;;;;;;5.50;5.00;;;;;28.82;40.33;101196.53;5090060;27;45483;-71
2021/07/07 08:42:42;;;;;;;;;6.75;6.75;;;;;31.27;40.15;101190.19;5098365;27;45784;-70
2021/07/07 08:45:11;;;;;;;;;7.25;6.25;;;;;31.89;37.44;101199.78;5093775;27;45587;-69
2021/07/07 08:47:38;;;;;;;;;9.00;9.00;;;;;30.16;38.07;101206.22;5081406;27;45508;-71
2021/07/07 08:50:07;;;;;;;;;7.00;5.25;;;;;28.90;39.46;101211.53;5087322;27;45979;-72
2021/07/07 08:52:33;;;;;;;;;5.50;5.00;;;;;28.18;37.93;101202.69;5085224;27;45468;-71
2021/07/07 08:54:58;;;;;;;;;4.50;4.50;;;;;29.19;39.77;101209.34;5088790;27;45763;-68
2021/07/07 08:57:24;;;;;;;;;6.00;5.00;;;;;28.97;39.86;101211.31;5086581;27;45594;-72
2021/07/07 08:59:49;;;;;;;;;5.00;4.00;;;;;27.96;40.68;101213.59;5080417;27;45565;-71
2021/07/07 09:02:15;;;;;;;;;9.00;6.00;;;;;26.89;41.62;101210.16;5090527;27;46410;-71
2021/07/07 09:04:43;;;;;;;;;4.50;4.50;;;;;27.16;43.45;101214.91;5080580;27;45968;-67
2021/07/07 09:07:13;;;;;;;;;5.75;4.50;;;;;28.23;41.83;101210.09;5081142;27;45492;-71
2021/07/07 09:09:46;;;;;;;;;5.25;3.50;;;;;28.75;40.19;101211.41;5082851;27;45517;-69
2021/07/07 09:12:15;;;;;;;;;8.00;5.75;;;;;28.24;41.37;101212.56;5085012;27;47460;-68
2021/07/07 09:14:42;;;;;;;;;5.00;3.75;;;;;27.67;40.57;101221.91;5086182;27;45472;-67
2021/07/07 09:17:13;;;;;;;;;7.00;4.75;;;;;28.52;40.94;101219.66;5086752;27;45454;-67
2021/07/07 09:19:40;;;;;;;;;4.75;4.75;;;;;30.97;35.50;101216.44;5080997;27;45515;-69
2021/07/07 09:22:07;;;;;;;;;5.25;5.25;;;;;32.81;34.48;101216.72;5090233;27;45832;-67
2021/07/07 09:24:36;;;;;;;;;5.50;5.25;;;;;33.38;34.84;101221.38;5081914;27;45643;-70
2021/07/07 09:27:08;;;;;;;;;4.50;4.50;;;;;33.18;32.00;101222.41;5084816;27;45488;-68
2021/07/07 09:29:39;;;;;;;;;4.50;4.50;;;;;32.54;31.29;101224.34;5081230;27;45592;-72
2021/07/07 09:32:15;;;;;;;;;5.25;5.25;;;;;31.46;35.67;101226.75;5082606;27;45545;-67
2021/07/07 09:34:43;;;;;;;;;8.75;5.00;;;;;31.05;36.85;101228.69;5085018;27;45800;-68
2021/07/07 09:37:09;;;;;;;;;4.25;4.25;;;;;30.71;36.02;101225.69;5090974;27;45511;-71
2021/07/07 09:39:35;;;;;;;;;4.25;4.25;;;;;30.31;36.17;101230.00;5084929;27;45512;-73
2021/07/07 09:42:02;;;;;;;;;6.00;6.00;;;;;30.06;36.95;101226.09;5087568;27;46118;-68
2021/07/07 09:44:33;;;;;;;;;6.25;5.00;;;;;30.13;38.33;101229.38;5083591;27;45491;-75
2021/07/07 09:46:59;;;;;;;;;6.25;5.00;;;;;30.01;38.32;101234.25;5084364;27;45500;-67
2021/07/07 09:49:26;;;;;;;;;6.00;4.25;;;;;30.29;38.69;101235.75;5088548;27;45562;-67
2021/07/07 09:51:51;;;;;;;;;8.25;5.50;;;;;30.47;33.32;101228.97;5085976;27;46261;-67
2021/07/07 09:54:21;;;;;;;;;5.00;5.00;;;;;29.78;36.13;101227.38;5084863;27;45999;-76
2021/07/07 09:56:46;;;;;;;;;5.00;3.25;;;;;29.26;35.29;101226.25;5105577;27;45517;-72
2021/07/07 09:59:12;;;;;;;;;7.25;6.25;;;;;29.29;37.61;101225.72;5094110;27;45618;-74
2021/07/07 10:01:38;;;;;;;;;6.00;6.00;;;;;28.97;37.24;101230.38;5087938;27;45545;-74
2021/07/07 10:04:05;;;;;;;;;5.25;5.25;;;;;28.41;35.86;101228.78;5092183;27;45573;-70
2021/07/07 10:06:31;;;;;;;;;5.00;5.00;;;;;28.03;37.30;101235.94;5110020;27;45405;-74
2021/07/07 10:08:57;;;;;;;;;4.75;4.75;;;;;27.83;41.11;101227.56;5087649;27;45485;-72
2021/07/07 10:11:22;;;;;;;;;5.00;4.50;;;;;28.02;39.40;101238.94;5086183;27;46878;-67
2021/07/07 10:13:48;;;;;;;;;5.25;3.75;;;;;28.12;40.08;101233.63;5088750;27;45581;-72
2021/07/07 10:16:16;;;;;;;;;6.50;6.50;;;;;28.02;40.30;101231.59;5087468;27;45480;-72
2021/07/07 10:18:42;;;;;;;;;5.25;5.25;;;;;28.09;39.14;101231.38;5078065;27;45640;-70
2021/07/07 10:21:08;;;;;;;;;6.25;5.00;;;;;27.99;38.94;101237.56;5085462;27;46521;-67
2021/07/07 10:23:38;;;;;;;;;6.50;5.50;;;;;27.56;40.08;101232.88;5086878;27;45687;-70
2021/07/07 10:26:06;;;;;;;;;6.75;6.00;;;;;27.27;40.91;101234.91;5082721;27;45725;-67
2021/07/07 10:28:33;;;;;;;;;6.50;5.00;;;;;27.16;41.44;101231.19;5085274;27;45503;-67
2021/07/07 10:31:02;;;;;;;;;5.25;5.25;;;;;27.08;41.77;101229.72;5092486;27;47426;-71
2021/07/07 10:33:34;;;;;;;;;9.25;6.50;;;;;27.00;40.65;101235.53;5085314;27;45571;-77
2021/07/07 10:36:22;;;;;;;;;6.00;6.00;;;;;27.39;40.03;101227.47;5082107;27;45572;-68
2021/07/07 10:38:54;;;;;;;;;7.25;6.25;;;;;27.92;42.45;101220.63;5080194;27;45606;-71
2021/07/07 10:42:05;;;;;;;;;6.50;5.00;;;;;28.86;40.77;101224.84;5084684;27;46282;-66
2021/07/07 10:44:38;;;;;;;;;7.75;5.25;;;;;29.45;38.28;101223.06;5040992;28;45617;-69
2021/07/07 10:47:14;;;;;;;;;5.00;4.00;;;;;29.32;38.29;101224.38;5036558;28;45808;-73
2021/07/07 10:49:41;;;;;;;;;7.25;5.00;;;;;29.32;37.97;101227.09;5040951;28;45597;-71
2021/07/07 10:52:09;;;;;;;;;7.75;5.00;;;;;29.41;39.21;101227.44;5043809;28;45498;-66
2021/07/07 10:54:37;;;;;;;;;5.00;5.00;;;;;29.63;34.17;101230.00;5040173;28;45556;-76
2021/07/07 10:57:05;;;;;;;;;8.25;6.00;;;;;29.53;38.28;101222.59;5041649;28;45750;-66
2021/07/07 10:59:41;;;;;;;;;5.25;5.00;;;;;29.75;37.42;101222.47;5022916;28;45563;-66
2021/07/07 11:02:16;;;;;;;;;5.50;5.00;;;;;29.88;38.20;101224.69;5040057;28;46263;-67
2021/07/07 11:04:43;;;;;;;;;5.25;4.25;;;;;30.34;37.60;101218.56;5040194;28;45716;-77
2021/07/07 11:07:35;;;;;;;;;6.00;5.00;;;;;30.44;36.71;101215.88;5042717;28;45544;-78
2021/07/07 11:10:09;;;;;;;;;7.25;4.50;;;;;30.99;37.85;101222.44;5041932;28;45662;-72
2021/07/07 11:12:40;;;;;;;;;4.75;3.75;;;;;31.67;36.05;101218.47;5026171;28;47226;-74
2021/07/07 11:15:16;;;;;;;;;3.00;2.25;;;;;32.19;35.00;101219.88;5066678;27;45677;-66
2021/07/07 11:17:43;;;;;;;;;6.75;4.00;;;;;32.85;35.23;101223.25;5076935;27;45481;-71
2021/07/07 11:20:10;;;;;;;;;4.75;3.00;;;;;33.37;30.38;101230.69;5086093;27;45606;-71
2021/07/07 11:22:37;;;;;;;;;4.00;3.25;;;;;32.99;32.47;101233.25;5088362;27;47975;-79